createdAt,value
2022-08-09T00:00:44.569Z,19.01
2022-08-09T00:01:54.893Z,19.01
2022-08-09T00:02:49.058Z,19.01
2022-08-09T00:04:05.700Z,19.01
2022-08-09T00:05:02.834Z,19.06
2022-08-09T00:06:16.653Z,19.01
2022-08-09T00:06:45.171Z,19.01
2022-08-09T00:07:44.798Z,19.06
2022-08-09T00:08:44.117Z,19.06
2022-08-09T00:09:44.467Z,19.01
2022-08-09T00:10:44.091Z,19.12
2022-08-09T00:12:02.693Z,19.12
2022-08-09T00:12:45.602Z,19.01
2022-08-09T00:13:44.052Z,19.06
2022-08-09T00:14:45.366Z,19.01
2022-08-09T00:15:58.066Z,19.01
2022-08-09T00:16:45.049Z,19.06
2022-08-09T00:18:05.399Z,19.01
2022-08-09T00:18:45.017Z,18.95
2022-08-09T00:19:48.011Z,19.12
2022-08-09T00:20:49.749Z,19.12
2022-08-09T00:21:56.117Z,18.95
2022-08-09T00:22:47.216Z,19.12
2022-08-09T00:23:57.174Z,18.79
2022-08-09T00:24:44.939Z,19.06
2022-08-09T00:25:44.061Z,18.95
2022-08-09T00:26:43.884Z,18.95
2022-08-09T00:27:43.872Z,19.01
2022-08-09T00:28:52.241Z,19.06
2022-08-09T00:30:16.808Z,18.95
2022-08-09T00:30:44.864Z,19.01
2022-08-09T00:31:58.290Z,19.06
2022-08-09T00:32:44.854Z,19.06
2022-08-09T00:33:50.403Z,19.01
2022-08-09T00:34:46.308Z,19.01
2022-08-09T00:35:44.806Z,19.12
2022-08-09T00:36:43.757Z,19.06
2022-08-09T00:37:43.747Z,19.12
2022-08-09T00:38:43.729Z,19.01
2022-08-09T00:40:10.208Z,19.06
2022-08-09T00:40:52.872Z,19.06
2022-08-09T00:44:13.883Z,19.01
2022-08-09T00:44:19.183Z,19.06
2022-08-09T00:44:25.632Z,19.06
2022-08-09T00:44:47.044Z,19.01
2022-08-09T00:45:47.466Z,19.06
2022-08-09T00:46:57.308Z,19.01
2022-08-09T00:47:45.473Z,19.01
2022-08-09T00:48:47.489Z,19.06
2022-08-09T00:49:43.844Z,19.01
2022-08-09T00:50:44.612Z,18.95
2022-08-09T00:51:54.347Z,18.95
2022-08-09T00:52:44.583Z,19.12
2022-08-09T00:53:43.538Z,19.06
2022-08-09T00:54:43.525Z,19.01
2022-08-09T00:56:05.205Z,19.06
2022-08-09T00:56:44.531Z,19.06
2022-08-09T00:57:43.490Z,19.06
2022-08-09T00:58:48.950Z,19.06
2022-08-09T00:59:46.452Z,19.01
2022-08-09T01:00:43.454Z,19.01
2022-08-09T01:01:44.697Z,19.06
2022-08-09T01:02:43.418Z,19.01
2022-08-09T01:03:45.699Z,19.01
2022-08-09T01:04:44.142Z,19.06
2022-08-09T01:05:53.242Z,19.17
2022-08-09T01:06:54.334Z,19.01
2022-08-09T01:08:01.139Z,18.79
2022-08-09T01:08:48.781Z,19.06
2022-08-09T01:09:43.330Z,19.06
2022-08-09T01:10:43.318Z,19.01
2022-08-09T01:11:55.466Z,19.01
2022-08-09T01:12:44.325Z,19.06
2022-08-09T01:13:59.186Z,19.01
2022-08-09T01:14:44.293Z,19.06
2022-08-09T01:15:52.209Z,19.06
2022-08-09T01:16:47.460Z,18.95
2022-08-09T01:17:43.226Z,19.06
2022-08-09T01:18:47.633Z,19.12
2022-08-09T01:20:01.769Z,19.01
2022-08-09T01:20:44.216Z,19.01
2022-08-09T01:21:45.186Z,19.01
2022-08-09T01:22:44.192Z,19.06
2022-08-09T01:24:02.902Z,19.12
2022-08-09T01:24:44.163Z,19.06
2022-08-09T01:25:48.818Z,19.06
2022-08-09T01:26:44.137Z,19.12
2022-08-09T01:27:43.095Z,19.06
2022-08-09T01:28:43.087Z,19.28
2022-08-09T01:29:55.822Z,19.01
2022-08-09T01:30:51.812Z,19.01
2022-08-09T01:32:32.142Z,18.95
2022-08-09T01:32:46.012Z,19.06
2022-08-09T01:33:43.018Z,18.95
2022-08-09T01:34:43.005Z,19.01
2022-08-09T01:35:42.992Z,19.01
2022-08-09T01:36:42.980Z,19.12
2022-08-09T01:38:09.783Z,18.95
2022-08-09T01:38:46.435Z,19.01
2022-08-09T01:39:43.013Z,19.12
2022-08-09T01:40:42.929Z,19.06
2022-08-09T01:41:53.660Z,19.01
2022-08-09T01:42:43.933Z,19.01
2022-08-09T01:43:51.536Z,19.01
2022-08-09T01:44:43.904Z,19.01
2022-08-09T01:45:44.736Z,19.06
2022-08-09T01:46:42.851Z,19.06
2022-08-09T01:47:44.888Z,19.12
2022-08-09T01:48:43.856Z,19.06
2022-08-09T01:49:42.812Z,19.06
2022-08-09T01:50:43.827Z,18.95
2022-08-09T01:51:44.638Z,19.01
2022-08-09T01:52:43.801Z,19.01
2022-08-09T01:53:42.761Z,19.06
2022-08-09T01:54:42.747Z,19.01
2022-08-09T01:55:42.732Z,19.01
2022-08-09T01:56:42.720Z,18.95
2022-08-09T01:57:45.760Z,18.95
2022-08-09T01:58:42.692Z,19.06
2022-08-09T01:59:52.066Z,19.06
2022-08-09T02:00:46.048Z,18.95
2022-08-09T02:01:59.367Z,19.01
2022-08-09T02:02:43.740Z,19.01
2022-08-09T02:03:42.626Z,19.12
2022-08-09T02:04:45.593Z,19.01
2022-08-09T02:06:03.453Z,19.01
2022-08-09T02:06:45.345Z,19.06
2022-08-09T02:08:38.807Z,19.06
2022-08-09T02:08:58.782Z,18.95
2022-08-09T02:09:43.590Z,18.74
2022-08-09T02:10:42.873Z,19.06
2022-08-09T02:11:43.985Z,19.06
2022-08-09T02:12:42.512Z,19.01
2022-08-09T02:13:42.498Z,19.01
2022-08-09T02:14:43.518Z,19.06
2022-08-09T02:15:49.379Z,19.06
2022-08-09T02:17:00.092Z,19.12
2022-08-09T02:18:00.984Z,19.01
2022-08-09T02:18:47.745Z,19.06
2022-08-09T02:19:43.092Z,19.06
2022-08-09T02:20:42.409Z,19.12
2022-08-09T02:21:42.394Z,19.01
2022-08-09T02:22:45.539Z,19.01
2022-08-09T02:23:42.918Z,19.01
2022-08-09T02:24:42.358Z,19.06
2022-08-09T02:25:49.690Z,18.85
2022-08-09T02:26:43.361Z,19.01
2022-08-09T02:27:43.517Z,19.06
2022-08-09T02:28:43.345Z,18.95
2022-08-09T02:29:42.293Z,18.90
2022-08-09T02:30:42.278Z,19.01
2022-08-09T02:31:42.265Z,19.22
2022-08-09T02:32:42.255Z,19.06
2022-08-09T02:34:07.022Z,19.06
2022-08-09T02:34:51.766Z,19.01
2022-08-09T02:36:01.758Z,19.01
2022-08-09T02:36:43.240Z,19.06
2022-08-09T02:37:42.185Z,19.01
2022-08-09T02:38:42.172Z,19.01
2022-08-09T02:39:42.721Z,19.06
2022-08-09T02:40:42.283Z,19.01
2022-08-09T02:41:42.134Z,19.06
2022-08-09T02:42:42.122Z,19.12
2022-08-09T02:43:47.796Z,19.06
2022-08-09T02:44:43.127Z,19.12
2022-08-09T02:45:42.085Z,19.01
2022-08-09T02:46:42.075Z,19.06
2022-08-09T02:47:57.170Z,19.01
2022-08-09T02:48:46.187Z,19.01
2022-08-09T02:49:42.035Z,19.12
2022-08-09T02:50:42.016Z,19.01
2022-08-09T02:51:42.008Z,19.01
2022-08-09T02:52:41.992Z,18.95
2022-08-09T02:53:43.092Z,19.06
2022-08-09T02:54:54.003Z,19.06
2022-08-09T02:55:53.720Z,19.12
2022-08-09T02:56:48.711Z,19.01
2022-08-09T02:58:00.343Z,19.12
2022-08-09T02:58:42.940Z,18.95
2022-08-09T03:00:11.317Z,19.12
2022-08-09T03:00:57.607Z,19.06
2022-08-09T03:02:05.659Z,19.01
2022-08-09T03:02:58.598Z,19.06
2022-08-09T03:04:16.710Z,19.06
2022-08-09T03:04:42.869Z,19.06
2022-08-09T03:05:41.829Z,19.01
2022-08-09T03:06:41.810Z,18.95
2022-08-09T03:07:41.798Z,19.06
2022-08-09T03:08:42.815Z,19.01
2022-08-09T03:09:42.697Z,19.06
2022-08-09T03:10:41.764Z,18.90
2022-08-09T03:12:06.113Z,19.06
2022-08-09T03:12:42.764Z,18.95
2022-08-09T03:13:43.667Z,19.06
2022-08-09T03:14:42.939Z,19.01
2022-08-09T03:16:05.825Z,19.06
2022-08-09T03:16:44.939Z,19.06
2022-08-09T03:17:41.672Z,19.12
2022-08-09T03:18:42.245Z,19.06
2022-08-09T03:19:52.229Z,19.01
2022-08-09T03:20:42.661Z,19.01
2022-08-09T03:21:41.621Z,18.95
2022-08-09T03:22:43.658Z,19.01
2022-08-09T03:23:41.595Z,19.12
2022-08-09T03:24:52.132Z,18.95
2022-08-09T03:25:59.086Z,19.06
2022-08-09T03:26:45.078Z,19.06
2022-08-09T03:27:45.079Z,19.06
2022-08-09T03:28:43.656Z,19.06
2022-08-09T03:29:58.140Z,19.01
2022-08-09T03:30:43.457Z,18.95
2022-08-09T03:31:42.506Z,18.90
2022-08-09T03:32:43.001Z,19.01
2022-08-09T03:33:54.558Z,18.95
2022-08-09T03:34:42.478Z,19.12
2022-08-09T03:36:11.237Z,18.95
2022-08-09T03:36:42.458Z,19.01
2022-08-09T03:37:54.400Z,19.06
2022-08-09T03:38:42.976Z,19.06
2022-08-09T03:39:41.439Z,19.01
2022-08-09T03:40:42.402Z,19.12
2022-08-09T03:41:45.792Z,19.01
2022-08-09T03:42:43.028Z,19.06
2022-08-09T03:43:41.338Z,18.95
2022-08-09T03:44:41.321Z,19.06
2022-08-09T03:46:04.758Z,19.01
2022-08-09T03:46:42.326Z,19.01
2022-08-09T03:47:42.083Z,19.06
2022-08-09T03:48:42.927Z,19.06
2022-08-09T03:49:58.207Z,19.01
2022-08-09T03:50:42.289Z,19.01
2022-08-09T03:51:54.166Z,18.95
2022-08-09T03:52:42.252Z,18.95
2022-08-09T03:53:41.208Z,19.06
2022-08-09T03:54:41.193Z,19.01
2022-08-09T03:55:42.284Z,19.06
2022-08-09T03:56:41.737Z,18.79
2022-08-09T03:57:44.639Z,19.01
2022-08-09T03:58:42.169Z,19.01
2022-08-09T03:59:53.848Z,18.95
2022-08-09T04:00:42.191Z,19.06
2022-08-09T04:01:41.103Z,19.06
2022-08-09T04:02:45.027Z,19.01
2022-08-09T04:04:00.547Z,19.01
2022-08-09T04:04:46.261Z,19.01
2022-08-09T04:05:41.051Z,18.95
2022-08-09T04:06:41.038Z,19.06
2022-08-09T04:07:52.583Z,19.01
2022-08-09T04:08:42.050Z,19.06
2022-08-09T04:09:42.136Z,19.06
2022-08-09T04:10:42.027Z,19.12
2022-08-09T04:11:42.004Z,19.01
2022-08-09T04:12:41.184Z,19.06
2022-08-09T04:14:37.305Z,18.95
2022-08-09T04:15:00.367Z,19.12
2022-08-09T04:16:18.318Z,19.06
2022-08-09T04:16:41.943Z,19.06
2022-08-09T04:17:42.484Z,18.79
2022-08-09T04:18:40.887Z,19.22
2022-08-09T04:19:51.064Z,19.06
2022-08-09T04:20:41.893Z,18.95
2022-08-09T04:21:40.847Z,19.01
2022-08-09T04:22:41.293Z,19.06
2022-08-09T04:23:40.820Z,19.06
2022-08-09T04:24:41.844Z,19.06
2022-08-09T04:25:40.796Z,19.06
2022-08-09T04:26:40.784Z,19.01
2022-08-09T04:27:40.770Z,18.95
2022-08-09T04:28:42.467Z,19.01
2022-08-09T04:29:50.184Z,19.06
2022-08-09T04:30:44.821Z,19.12
2022-08-09T04:31:47.124Z,18.95
2022-08-09T04:32:45.767Z,19.06
2022-08-09T04:33:52.258Z,19.06
2022-08-09T04:34:47.743Z,19.01
2022-08-09T04:35:42.327Z,19.06
2022-08-09T04:36:50.087Z,19.06
2022-08-09T04:37:42.240Z,19.01
2022-08-09T04:38:40.631Z,19.01
2022-08-09T04:39:41.010Z,19.01
2022-08-09T04:40:40.602Z,18.95
2022-08-09T04:41:43.655Z,18.95
2022-08-09T04:42:40.580Z,19.12
2022-08-09T04:43:46.530Z,18.95
2022-08-09T04:44:41.584Z,19.12
2022-08-09T04:45:53.723Z,19.06
2022-08-09T04:46:59.386Z,19.17
2022-08-09T04:47:59.314Z,19.01
2022-08-09T04:48:41.531Z,19.01
2022-08-09T04:49:54.690Z,19.06
2022-08-09T04:50:41.505Z,19.06
2022-08-09T04:51:40.463Z,19.06
2022-08-09T04:52:40.456Z,19.12
2022-08-09T04:53:40.437Z,19.06
2022-08-09T04:54:40.424Z,19.01
2022-08-09T04:55:57.637Z,19.01
2022-08-09T04:56:41.429Z,19.06
2022-08-09T04:57:58.579Z,19.06
2022-08-09T04:58:41.404Z,18.95
2022-08-09T04:59:40.357Z,19.06
2022-08-09T05:00:40.345Z,19.01
2022-08-09T05:01:40.336Z,19.01
2022-08-09T05:02:40.320Z,19.12
2022-08-09T05:03:43.632Z,18.95
2022-08-09T05:04:40.335Z,19.12
2022-08-09T05:05:52.128Z,19.01
2022-08-09T05:06:41.301Z,18.95
2022-08-09T05:07:40.260Z,19.06
2022-08-09T05:08:44.012Z,19.01
2022-08-09T05:09:49.347Z,19.01
2022-08-09T05:10:41.251Z,19.12
2022-08-09T05:11:40.208Z,19.01
2022-08-09T05:12:40.191Z,19.06
2022-08-09T05:13:40.178Z,19.12
2022-08-09T05:14:40.937Z,19.06
2022-08-09T05:15:47.650Z,19.12
2022-08-09T05:16:58.603Z,19.01
2022-08-09T05:18:37.820Z,19.01
2022-08-09T05:18:57.730Z,19.01
2022-08-09T05:19:44.881Z,19.06
2022-08-09T05:20:40.093Z,19.01
2022-08-09T05:21:47.083Z,18.95
2022-08-09T05:23:54.061Z,19.01
2022-08-09T05:23:58.340Z,19.01
2022-08-09T05:24:41.068Z,19.01
2022-08-09T05:25:40.024Z,19.06
2022-08-09T05:26:46.088Z,19.01
2022-08-09T05:27:46.524Z,19.06
2022-08-09T05:28:41.019Z,19.06
2022-08-09T05:29:39.974Z,19.28
2022-08-09T05:30:41.790Z,19.01
2022-08-09T05:31:45.925Z,18.95
2022-08-09T05:32:41.032Z,19.06
2022-08-09T05:33:42.608Z,19.01
2022-08-09T05:34:42.936Z,18.95
2022-08-09T05:35:50.048Z,19.06
2022-08-09T05:36:40.913Z,19.06
2022-08-09T05:37:46.458Z,19.06
2022-08-09T05:38:40.885Z,19.01
2022-08-09T05:39:43.899Z,19.06
2022-08-09T05:40:39.831Z,19.06
2022-08-09T05:41:39.820Z,19.06
2022-08-09T05:42:39.809Z,18.95
2022-08-09T05:43:40.714Z,19.01
2022-08-09T05:44:39.779Z,19.06
2022-08-09T05:45:52.471Z,19.06
2022-08-09T05:46:40.786Z,18.95
2022-08-09T05:47:45.519Z,19.01
2022-08-09T05:48:40.760Z,19.06
2022-08-09T05:50:26.049Z,19.12
2022-08-09T05:50:51.159Z,19.06
2022-08-09T05:51:45.940Z,18.74
2022-08-09T05:52:39.684Z,19.01
2022-08-09T05:53:51.644Z,19.06
2022-08-09T05:54:40.686Z,19.01
2022-08-09T05:55:39.637Z,19.01
2022-08-09T05:56:39.628Z,19.06
2022-08-09T05:57:55.955Z,18.79
2022-08-09T05:58:40.633Z,18.95
2022-08-09T05:59:39.585Z,19.01
2022-08-09T06:00:39.573Z,19.06
2022-08-09T06:01:42.677Z,19.06
2022-08-09T06:02:42.294Z,18.95
2022-08-09T06:03:44.086Z,19.06
2022-08-09T06:04:44.549Z,19.12
2022-08-09T06:05:54.714Z,19.12
2022-08-09T06:06:45.125Z,19.01
2022-08-09T06:07:40.514Z,19.01
2022-08-09T06:08:39.469Z,19.12
2022-08-09T06:09:54.538Z,18.95
2022-08-09T06:10:40.483Z,19.06
2022-08-09T06:11:40.805Z,18.95
2022-08-09T06:12:40.446Z,19.01
2022-08-09T06:13:39.408Z,18.95
2022-08-09T06:14:39.398Z,19.06
2022-08-09T06:15:39.372Z,19.01
2022-08-09T06:16:39.370Z,18.90
2022-08-09T06:17:40.663Z,19.06
2022-08-09T06:18:39.338Z,18.85
2022-08-09T06:19:39.328Z,19.06
2022-08-09T06:20:39.319Z,19.06
2022-08-09T06:21:39.755Z,19.01
2022-08-09T06:22:39.290Z,18.95
2022-08-09T06:23:57.115Z,19.01
2022-08-09T06:24:40.297Z,19.01
2022-08-09T06:25:39.254Z,19.06
2022-08-09T06:26:39.240Z,18.79
2022-08-09T06:27:42.506Z,19.01
2022-08-09T06:28:39.202Z,19.01
2022-08-09T06:29:47.931Z,19.06
2022-08-09T06:30:40.223Z,19.01
2022-08-09T06:32:17.328Z,19.06
2022-08-09T06:32:59.691Z,19.06
2022-08-09T06:33:42.121Z,19.06
2022-08-09T06:34:40.172Z,19.06
2022-08-09T06:35:57.513Z,19.12
2022-08-09T06:36:43.811Z,19.01
2022-08-09T06:37:49.861Z,19.01
2022-08-09T06:38:40.137Z,18.90
2022-08-09T06:39:57.324Z,19.06
2022-08-09T06:40:40.139Z,18.95
2022-08-09T06:41:39.737Z,19.01
2022-08-09T06:42:45.077Z,19.06
2022-08-09T06:43:40.053Z,19.01
2022-08-09T06:44:39.005Z,19.06
2022-08-09T06:46:06.284Z,19.12
2022-08-09T06:46:41.164Z,19.06
2022-08-09T06:47:41.674Z,19.01
2022-08-09T06:48:42.926Z,19.01
2022-08-09T06:50:11.576Z,19.01
2022-08-09T06:50:39.958Z,19.12
2022-08-09T06:51:40.129Z,19.06
2022-08-09T06:52:39.051Z,18.95
2022-08-09T06:53:38.902Z,19.06
2022-08-09T06:54:38.880Z,19.06
2022-08-09T06:55:38.891Z,19.06
2022-08-09T06:56:38.856Z,19.06
2022-08-09T06:58:01.464Z,19.01
2022-08-09T07:00:50.473Z,18.90
2022-08-09T07:00:51.798Z,19.01
2022-08-09T07:00:52.111Z,19.06
2022-08-09T07:01:53.855Z,19.12
2022-08-09T07:02:39.856Z,19.12
2022-08-09T07:03:39.310Z,19.12
2022-08-09T07:04:39.774Z,19.01
2022-08-09T07:06:02.685Z,19.01
2022-08-09T07:06:39.755Z,19.06
2022-08-09T07:08:00.271Z,19.01
2022-08-09T07:08:39.790Z,19.06
2022-08-09T07:09:55.923Z,19.06
2022-08-09T07:10:39.698Z,18.95
2022-08-09T07:11:52.275Z,19.06
2022-08-09T07:12:42.026Z,19.01
2022-08-09T07:13:45.454Z,19.12
2022-08-09T07:14:39.644Z,19.01
2022-08-09T07:16:39.058Z,19.01
2022-08-09T07:16:48.661Z,19.06
2022-08-09T07:17:52.571Z,19.06
2022-08-09T07:18:39.601Z,19.06
2022-08-09T07:19:38.557Z,19.06
2022-08-09T07:20:39.691Z,19.01
2022-08-09T07:21:38.535Z,19.06
2022-08-09T07:22:46.422Z,19.17
2022-08-09T07:23:56.534Z,19.01
2022-08-09T07:24:40.542Z,19.12
2022-08-09T07:25:39.042Z,19.01
2022-08-09T07:26:38.469Z,19.06
2022-08-09T07:27:43.184Z,19.12
2022-08-09T07:29:09.391Z,19.01
2022-08-09T07:29:42.876Z,19.06
2022-08-09T07:30:38.424Z,19.01
2022-08-09T07:31:45.187Z,19.06
2022-08-09T07:32:39.770Z,19.12
2022-08-09T07:33:52.888Z,19.12
2022-08-09T07:34:39.402Z,19.12
2022-08-09T07:35:39.846Z,19.12
2022-08-09T07:36:39.374Z,19.01
2022-08-09T07:37:42.902Z,18.74
2022-08-09T07:38:38.321Z,19.06
2022-08-09T07:39:40.919Z,18.85
2022-08-09T07:41:08.096Z,19.12
2022-08-09T07:41:39.322Z,18.79
2022-08-09T07:42:38.264Z,19.12
2022-08-09T07:43:41.379Z,19.06
2022-08-09T07:44:51.805Z,18.85
2022-08-09T07:45:40.945Z,19.01
2022-08-09T07:46:38.219Z,18.90
2022-08-09T07:47:49.316Z,18.79
2022-08-09T07:48:39.353Z,19.01
2022-08-09T07:50:04.679Z,19.01
2022-08-09T07:50:39.194Z,18.85
2022-08-09T07:52:05.484Z,19.12
2022-08-09T07:52:39.162Z,19.12
2022-08-09T07:54:06.275Z,19.01
2022-08-09T07:54:39.138Z,19.06
2022-08-09T07:55:41.230Z,19.01
2022-08-09T07:56:48.895Z,19.01
2022-08-09T07:57:47.382Z,19.01
2022-08-09T07:58:39.087Z,19.01
2022-08-09T07:59:51.868Z,19.12
2022-08-09T08:00:55.626Z,19.01
2022-08-09T08:01:39.690Z,18.79
2022-08-09T08:02:42.401Z,19.12
2022-08-09T08:03:38.000Z,19.06
2022-08-09T08:04:37.984Z,19.01
2022-08-09T08:05:54.285Z,19.01
2022-08-09T08:06:45.460Z,18.95
2022-08-09T08:08:44.651Z,19.01
2022-08-09T08:09:01.275Z,19.06
2022-08-09T08:09:51.509Z,19.06
2022-08-09T08:10:38.935Z,18.85
2022-08-09T08:12:10.787Z,18.85
2022-08-09T08:12:42.485Z,19.06
2022-08-09T08:13:41.286Z,18.95
2022-08-09T08:14:38.892Z,19.01
2022-08-09T08:15:39.267Z,19.01
2022-08-09T08:16:39.634Z,19.06
2022-08-09T08:17:53.374Z,19.01
2022-08-09T08:18:38.844Z,19.06
2022-08-09T08:19:37.796Z,19.12
2022-08-09T08:20:37.783Z,19.06
2022-08-09T08:21:39.844Z,19.01
2022-08-09T08:22:38.786Z,19.06
2022-08-09T08:23:37.743Z,19.12
2022-08-09T08:24:40.292Z,18.85
2022-08-09T08:25:44.736Z,19.01
2022-08-09T08:26:41.940Z,18.85
2022-08-09T08:27:40.559Z,18.85
2022-08-09T08:28:37.680Z,19.06
2022-08-09T08:29:39.390Z,19.01
2022-08-09T08:30:39.099Z,19.01
2022-08-09T08:32:02.301Z,19.12
2022-08-09T08:32:52.928Z,19.01
2022-08-09T08:33:52.268Z,19.01
2022-08-09T08:34:38.632Z,18.95
2022-08-09T08:35:59.205Z,19.06
2022-08-09T08:36:40.120Z,18.90
2022-08-09T08:37:41.912Z,18.79
2022-08-09T08:38:38.588Z,18.85
2022-08-09T08:39:39.728Z,19.06
2022-08-09T08:40:38.562Z,19.06
2022-08-09T08:41:50.822Z,18.79
2022-08-09T08:42:38.544Z,18.79
2022-08-09T08:43:37.493Z,19.12
2022-08-09T08:44:37.489Z,18.79
2022-08-09T08:45:38.022Z,18.79
2022-08-09T08:46:59.759Z,18.90
2022-08-09T08:47:44.649Z,18.79
2022-08-09T08:48:38.463Z,18.79
2022-08-09T08:49:48.672Z,19.01
2022-08-09T08:50:38.442Z,19.01
2022-08-09T08:51:41.670Z,18.85
2022-08-09T08:52:59.622Z,19.01
2022-08-09T08:53:38.403Z,19.01
2022-08-09T08:54:38.386Z,18.90
2022-08-09T08:55:37.351Z,19.06
2022-08-09T08:56:37.448Z,18.79
2022-08-09T08:57:38.007Z,19.01
2022-08-09T08:58:37.719Z,18.85
2022-08-09T08:59:46.841Z,19.06
2022-08-09T09:00:38.313Z,19.01
2022-08-09T09:01:44.995Z,19.06
2022-08-09T09:02:38.750Z,18.85
2022-08-09T09:03:38.270Z,19.01
2022-08-09T09:04:47.817Z,19.06
2022-08-09T09:05:59.066Z,18.79
2022-08-09T09:06:38.241Z,18.85
2022-08-09T09:07:37.186Z,18.85
2022-08-09T09:08:41.053Z,19.06
2022-08-09T09:09:50.219Z,19.06
2022-08-09T09:10:38.186Z,19.06
2022-08-09T09:11:38.597Z,18.85
2022-08-09T09:12:37.283Z,18.90
2022-08-09T09:13:47.463Z,19.06
2022-08-09T09:14:38.126Z,18.85
2022-08-09T09:15:37.088Z,18.85
2022-08-09T09:16:37.086Z,18.90
2022-08-09T09:17:48.285Z,18.85
2022-08-09T09:18:38.083Z,18.90
2022-08-09T09:19:41.463Z,18.85
2022-08-09T09:20:37.030Z,18.95
2022-08-09T09:21:43.476Z,18.95
2022-08-09T09:22:37.273Z,18.90
2022-08-09T09:23:37.705Z,19.12
2022-08-09T09:24:37.833Z,18.85
2022-08-09T09:26:02.256Z,19.06
2022-08-09T09:26:37.981Z,18.90
2022-08-09T09:28:05.631Z,18.79
2022-08-09T09:29:02.035Z,18.85
2022-08-09T09:30:08.467Z,18.79
2022-08-09T09:30:41.178Z,18.79
2022-08-09T09:32:06.722Z,18.79
2022-08-09T09:32:38.197Z,18.85
2022-08-09T09:33:44.254Z,18.85
2022-08-09T09:34:37.874Z,18.90
2022-08-09T09:35:36.830Z,18.95
2022-08-09T09:36:36.821Z,18.79
2022-08-09T09:37:36.816Z,18.85
2022-08-09T09:38:37.099Z,18.79
2022-08-09T09:39:50.159Z,18.85
2022-08-09T09:40:37.838Z,18.79
2022-08-09T09:41:49.258Z,18.85
2022-08-09T09:42:37.775Z,18.85
2022-08-09T09:43:41.681Z,18.85
2022-08-09T09:44:37.754Z,18.79
2022-08-09T09:45:57.062Z,18.79
2022-08-09T09:46:43.495Z,18.85
2022-08-09T09:47:47.807Z,18.74
2022-08-09T09:48:37.700Z,18.90
2022-08-09T09:50:07.410Z,18.85
2022-08-09T09:50:37.669Z,18.85
2022-08-09T09:51:38.461Z,18.79
2022-08-09T09:52:37.757Z,18.85
2022-08-09T09:53:57.798Z,18.79
2022-08-09T09:54:37.635Z,18.90
2022-08-09T09:55:36.571Z,18.95
2022-08-09T09:56:36.557Z,18.79
2022-08-09T09:58:02.227Z,18.90
2022-08-09T09:58:37.575Z,18.90
2022-08-09T09:59:36.518Z,18.85
2022-08-09T10:00:36.501Z,18.85
2022-08-09T10:01:38.000Z,18.90
2022-08-09T10:02:36.483Z,18.85
2022-08-09T10:03:36.497Z,18.79
2022-08-09T10:04:36.525Z,18.90
2022-08-09T10:06:03.936Z,18.79
2022-08-09T10:06:37.459Z,18.85
2022-08-09T10:07:36.421Z,18.85
2022-08-09T10:08:43.253Z,18.90
2022-08-09T10:09:37.425Z,18.85
2022-08-09T10:10:36.377Z,18.74
2022-08-09T10:11:59.835Z,18.85
2022-08-09T10:12:37.396Z,18.85
2022-08-09T10:13:43.056Z,18.79
2022-08-09T10:14:37.364Z,18.90
2022-08-09T10:16:08.650Z,18.90
2022-08-09T10:16:56.497Z,18.85
2022-08-09T10:17:51.071Z,18.85
2022-08-09T10:18:37.311Z,18.79
2022-08-09T10:19:36.269Z,18.85
2022-08-09T10:20:44.915Z,18.79
2022-08-09T10:21:37.276Z,18.85
2022-08-09T10:22:36.432Z,18.95
2022-08-09T10:23:36.224Z,18.74
2022-08-09T10:24:36.428Z,18.85
2022-08-09T10:26:07.297Z,18.90
2022-08-09T10:26:37.220Z,18.90
2022-08-09T10:27:38.958Z,18.90
2022-08-09T10:28:37.450Z,18.79
2022-08-09T10:30:43.846Z,18.85
2022-08-09T10:32:42.770Z,18.85
2022-08-09T10:34:08.196Z,18.85
2022-08-09T10:34:37.153Z,19.01
2022-08-09T10:35:36.082Z,18.90
2022-08-09T10:36:36.060Z,18.85
2022-08-09T10:37:38.335Z,18.85
2022-08-09T10:38:57.085Z,18.90
2022-08-09T10:39:40.600Z,18.85
2022-08-09T10:40:40.955Z,18.85
2022-08-09T10:41:37.041Z,18.47
2022-08-09T10:42:35.987Z,18.85
2022-08-09T10:43:46.738Z,18.90
2022-08-09T10:44:36.993Z,18.85
2022-08-09T10:45:49.426Z,18.85
2022-08-09T10:46:52.359Z,18.85
2022-08-09T10:48:20.379Z,18.79
2022-08-09T10:48:37.000Z,18.85
2022-08-09T10:49:49.926Z,18.85
2022-08-09T10:50:36.918Z,18.90
2022-08-09T10:51:40.657Z,18.79
2022-08-09T10:52:36.394Z,18.79
2022-08-09T10:53:38.095Z,18.79
2022-08-09T10:54:35.838Z,18.85
2022-08-09T10:55:58.438Z,18.85
2022-08-09T10:56:36.842Z,18.90
2022-08-09T10:57:36.366Z,18.85
2022-08-09T10:58:37.145Z,18.90
2022-08-09T10:59:43.116Z,18.41
2022-08-09T11:00:36.811Z,18.90
2022-08-09T11:03:11.444Z,18.85
2022-08-09T11:03:13.711Z,18.90
2022-08-09T11:03:50.112Z,18.90
2022-08-09T11:04:36.768Z,18.90
2022-08-09T11:05:36.955Z,18.90
2022-08-09T11:06:37.160Z,18.41
2022-08-09T11:07:57.062Z,18.79
2022-08-09T11:08:38.662Z,18.90
2022-08-09T11:09:36.765Z,18.85
2022-08-09T11:10:35.640Z,18.79
2022-08-09T11:11:35.629Z,18.85
2022-08-09T11:12:38.349Z,18.79
2022-08-09T11:13:50.339Z,18.85
2022-08-09T11:14:37.927Z,18.90
2022-08-09T11:15:38.385Z,18.85
2022-08-09T11:16:37.325Z,18.85
2022-08-09T11:17:41.765Z,18.85
2022-08-09T11:18:36.577Z,18.52
2022-08-09T11:20:10.450Z,18.85
2022-08-09T11:20:36.547Z,18.90
2022-08-09T11:21:35.503Z,18.41
2022-08-09T11:22:35.715Z,18.79
2022-08-09T11:23:35.483Z,18.90
2022-08-09T11:24:35.464Z,18.79
2022-08-09T11:25:45.631Z,18.47
2022-08-09T11:26:36.474Z,18.79
2022-08-09T11:28:04.037Z,18.52
2022-08-09T11:28:54.188Z,18.52
2022-08-09T11:30:05.942Z,18.90
2022-08-09T11:30:37.692Z,18.85
2022-08-09T11:31:36.790Z,18.47
2022-08-09T11:32:35.369Z,18.85
2022-08-09T11:33:35.356Z,18.79
2022-08-09T11:34:35.347Z,18.47
2022-08-09T11:35:49.056Z,18.85
2022-08-09T11:36:36.844Z,18.90
2022-08-09T11:37:41.002Z,18.47
2022-08-09T11:38:41.531Z,18.47
2022-08-09T11:39:38.111Z,18.90
2022-08-09T11:40:35.276Z,18.41
2022-08-09T11:41:37.460Z,18.47
2022-08-09T11:42:35.253Z,18.36
2022-08-09T11:43:35.223Z,18.41
2022-08-09T11:44:35.223Z,18.52
2022-08-09T11:45:42.480Z,18.41
2022-08-09T11:46:36.228Z,18.52
2022-08-09T11:47:35.238Z,18.79
2022-08-09T11:48:35.940Z,18.47
2022-08-09T11:49:42.871Z,18.47
2022-08-09T11:50:56.689Z,18.47
2022-08-09T11:52:49.463Z,18.41
2022-08-09T11:53:02.131Z,18.47
2022-08-09T11:53:57.701Z,18.47
2022-08-09T11:54:36.182Z,18.47
2022-08-09T11:55:52.144Z,18.47
2022-08-09T11:56:47.790Z,18.85
2022-08-09T11:58:00.531Z,18.41
2022-08-09T11:58:36.062Z,18.41
2022-08-09T11:59:35.025Z,18.41
2022-08-09T12:00:35.004Z,18.41
2022-08-09T12:02:01.003Z,18.41
2022-08-09T12:02:39.595Z,18.52
2022-08-09T12:03:57.235Z,18.41
2022-08-09T12:04:37.941Z,18.41
2022-08-09T12:05:39.764Z,18.52
2022-08-09T12:06:35.961Z,18.52
2022-08-09T12:07:42.091Z,18.41
2022-08-09T12:08:35.928Z,18.47
2022-08-09T12:09:34.886Z,18.41
2022-08-09T12:10:39.373Z,18.47
2022-08-09T12:11:44.520Z,18.47
2022-08-09T12:12:35.875Z,18.52
2022-08-09T12:14:10.391Z,18.41
2022-08-09T12:14:40.851Z,18.47
2022-08-09T12:15:48.966Z,18.41
2022-08-09T12:16:38.140Z,18.47
2022-08-09T12:17:43.430Z,18.90
2022-08-09T12:18:35.801Z,18.47
2022-08-09T12:19:34.758Z,18.47
2022-08-09T12:20:34.746Z,18.47
2022-08-09T12:21:38.734Z,18.47
2022-08-09T12:22:34.994Z,18.52
2022-08-09T12:23:56.513Z,18.52
2022-08-09T12:24:35.726Z,18.47
2022-08-09T12:25:37.372Z,18.52
2022-08-09T12:26:34.660Z,18.47
2022-08-09T12:29:11.075Z,18.52
2022-08-09T12:29:14.885Z,18.52
2022-08-09T12:29:44.751Z,18.52
2022-08-09T12:30:39.297Z,18.52
2022-08-09T12:31:58.466Z,18.47
2022-08-09T12:32:35.638Z,18.47
2022-08-09T12:33:50.936Z,18.41
2022-08-09T12:34:35.621Z,18.41
2022-08-09T12:35:40.149Z,18.41
2022-08-09T12:36:36.085Z,18.47
2022-08-09T12:37:44.333Z,18.47
2022-08-09T12:38:38.112Z,18.41
2022-08-09T12:39:37.831Z,18.47
2022-08-09T12:40:34.485Z,18.47
2022-08-09T12:41:39.552Z,18.47
2022-08-09T12:42:34.882Z,18.47
2022-08-09T12:44:04.936Z,18.41
2022-08-09T12:44:37.478Z,18.41
2022-08-09T12:45:38.528Z,18.36
2022-08-09T12:46:34.410Z,18.47
2022-08-09T12:47:41.212Z,18.47
2022-08-09T12:48:37.450Z,18.52
2022-08-09T12:49:34.360Z,18.52
2022-08-09T12:50:34.352Z,18.52
2022-08-09T12:52:00.424Z,18.41
2022-08-09T12:52:42.809Z,18.47
2022-08-09T12:53:38.372Z,18.47
2022-08-09T12:54:34.295Z,18.47